Huron, South Dakota
Current Conditions -  °F | °C
As of 2:55 AM on Friday 24 Oct 2014 (Local Time) from KHON Reporting Station
Clear Clear  
Wind Chill:   Ceiling: Unl
Heat Index:   Visibility: 10mi
Dew Point:   Wind: 3mph
Humidity: 90%   Direction: 150°SSE
Pressure: 29.83"   Gusts: NA
Location:  44.36°N, 98.21°W
Report Text: KHON 240755Z AUTO 15003KT 10SM CLR 08/07 A2983 RMK AO2 SLP100 T00830067 $
Loading
Personal Weather Stations






























Interactive Weather Map
Tropical Storm Tracking
New forecast layout! Learn more

10-Day Weather Forecast

Advertisements
Track Severe Weather on mobile